createdAt,value
2022-10-11T00:00:24.000Z,84.36
2022-10-11T00:01:23.956Z,84.36
2022-10-11T00:02:26.394Z,84.38
2022-10-11T00:03:23.866Z,84.32
2022-10-11T00:04:23.857Z,84.45
2022-10-11T00:05:23.898Z,84.50
2022-10-11T00:06:23.835Z,84.42
2022-10-11T00:07:23.818Z,84.24
2022-10-11T00:08:23.979Z,84.21
2022-10-11T00:09:23.824Z,84.11
2022-10-11T00:10:23.843Z,84.26
2022-10-11T00:11:23.848Z,84.32
2022-10-11T00:12:23.828Z,84.35
2022-10-11T00:13:23.789Z,84.29
2022-10-11T00:14:23.871Z,84.37
2022-10-11T00:15:23.754Z,84.56
2022-10-11T00:16:23.812Z,84.63
2022-10-11T00:17:23.732Z,84.56
2022-10-11T00:18:23.724Z,84.72
2022-10-11T00:19:23.813Z,84.96
2022-10-11T00:20:23.737Z,85.07
2022-10-11T00:21:23.732Z,85.13
2022-10-11T00:22:23.716Z,85.40
2022-10-11T00:23:23.699Z,85.57
2022-10-11T00:24:23.651Z,85.72
2022-10-11T00:25:23.644Z,85.88
2022-10-11T00:26:23.719Z,86.01
2022-10-11T00:27:23.652Z,86.15
2022-10-11T00:28:23.704Z,86.30
2022-10-11T00:29:23.657Z,86.27
2022-10-11T00:30:23.721Z,86.26
2022-10-11T00:31:23.756Z,86.18
2022-10-11T00:32:23.634Z,86.28
2022-10-11T00:33:23.619Z,86.21
2022-10-11T00:34:23.582Z,86.07
2022-10-11T00:35:23.577Z,86.00
2022-10-11T00:36:23.557Z,85.89
2022-10-11T00:37:23.585Z,85.75
2022-10-11T00:38:23.570Z,85.65
2022-10-11T00:39:23.516Z,85.67
2022-10-11T00:40:23.512Z,85.62
2022-10-11T00:41:23.499Z,85.49
2022-10-11T00:42:23.555Z,85.59
2022-10-11T00:43:23.460Z,85.50
2022-10-11T00:44:23.604Z,85.45
2022-10-11T00:45:23.443Z,85.40
2022-10-11T00:46:23.430Z,85.30
2022-10-11T00:47:23.437Z,85.39
2022-10-11T00:48:23.427Z,85.41
2022-10-11T00:49:23.438Z,85.43
2022-10-11T00:50:23.428Z,85.33
2022-10-11T00:51:23.454Z,85.20
2022-10-11T00:52:23.410Z,85.21
2022-10-11T00:53:23.364Z,85.26
2022-10-11T00:54:23.366Z,85.18
2022-10-11T00:55:23.340Z,85.13
2022-10-11T00:56:23.322Z,84.97
2022-10-11T00:57:23.319Z,84.76
2022-10-11T00:58:23.396Z,84.68
2022-10-11T00:59:23.300Z,84.65
2022-10-11T01:00:23.307Z,84.63
2022-10-11T01:01:23.432Z,84.72
2022-10-11T01:02:23.265Z,84.82
2022-10-11T01:03:23.258Z,84.89
2022-10-11T01:04:23.295Z,85.06
2022-10-11T01:05:29.600Z,85.07
2022-10-11T01:06:23.232Z,85.13
2022-10-11T01:07:23.220Z,85.18
2022-10-11T01:08:23.318Z,85.24
2022-10-11T01:09:23.214Z,85.36
2022-10-11T01:10:23.317Z,85.37
2022-10-11T01:11:23.178Z,85.52
2022-10-11T01:12:23.258Z,85.70
2022-10-11T01:13:23.221Z,85.83
2022-10-11T01:14:23.138Z,85.83
2022-10-11T01:15:23.141Z,85.95
2022-10-11T01:16:23.187Z,86.21
2022-10-11T01:17:23.156Z,86.60
2022-10-11T01:18:23.119Z,86.75
2022-10-11T01:19:23.089Z,86.87
2022-10-11T01:20:23.095Z,87.07
2022-10-11T01:21:23.079Z,87.21
2022-10-11T01:22:23.130Z,87.41
2022-10-11T01:23:23.079Z,87.63
2022-10-11T01:24:23.048Z,87.79
2022-10-11T01:25:23.028Z,87.86
2022-10-11T01:26:23.089Z,87.86
2022-10-11T01:27:23.017Z,87.83
2022-10-11T01:28:23.115Z,87.93
2022-10-11T01:29:22.999Z,88.00
2022-10-11T01:30:23.043Z,88.10
2022-10-11T01:31:22.992Z,88.23
2022-10-11T01:32:22.966Z,88.40
2022-10-11T01:33:22.960Z,88.51
2022-10-11T01:34:22.961Z,88.42
2022-10-11T01:35:22.981Z,88.30
2022-10-11T01:36:22.963Z,88.62
2022-10-11T01:37:22.937Z,88.76
2022-10-11T01:38:22.895Z,88.75
2022-10-11T01:39:22.895Z,88.67
2022-10-11T01:40:23.047Z,88.67
2022-10-11T01:41:22.876Z,88.64
2022-10-11T01:42:22.893Z,88.55
2022-10-11T01:43:22.851Z,88.56
2022-10-11T01:44:22.832Z,88.61
2022-10-11T01:45:22.856Z,88.66
2022-10-11T01:46:22.872Z,88.58
2022-10-11T01:47:22.925Z,88.59
2022-10-11T01:48:22.869Z,88.61
2022-10-11T01:49:22.791Z,88.65
2022-10-11T01:50:22.775Z,88.73
2022-10-11T01:51:22.769Z,88.73
2022-10-11T01:52:22.811Z,88.67
2022-10-11T01:53:22.797Z,88.76
2022-10-11T01:54:22.825Z,88.85
2022-10-11T01:55:22.775Z,88.93
2022-10-11T01:56:22.705Z,88.91
2022-10-11T01:57:22.727Z,88.71
2022-10-11T01:58:22.735Z,88.66
2022-10-11T01:59:22.746Z,88.58
2022-10-11T02:00:22.706Z,88.50
2022-10-11T02:01:23.062Z,88.62
2022-10-11T02:02:22.664Z,88.71
2022-10-11T02:03:22.663Z,88.80
2022-10-11T02:04:22.660Z,88.98
2022-10-11T02:05:22.743Z,89.05
2022-10-11T02:06:22.622Z,89.07
2022-10-11T02:07:22.600Z,89.15
2022-10-11T02:08:22.604Z,89.20
2022-10-11T02:09:22.708Z,89.27
2022-10-11T02:10:22.707Z,89.38
2022-10-11T02:11:22.619Z,89.50
2022-10-11T02:12:22.580Z,89.54
2022-10-11T02:13:22.586Z,89.59
2022-10-11T02:14:22.549Z,89.70
2022-10-11T02:15:22.530Z,89.79
2022-10-11T02:16:22.616Z,89.90
2022-10-11T02:17:22.551Z,89.96
2022-10-11T02:18:22.524Z,90.00
2022-10-11T02:19:22.525Z,90.02
2022-10-11T02:20:22.506Z,89.97
2022-10-11T02:21:22.513Z,90.11
2022-10-11T02:22:22.446Z,90.18
2022-10-11T02:23:22.508Z,90.39
2022-10-11T02:24:22.485Z,90.45
2022-10-11T02:25:22.441Z,90.51
2022-10-11T02:26:22.474Z,90.57
2022-10-11T02:27:22.409Z,90.58
2022-10-11T02:28:22.398Z,90.54
2022-10-11T02:29:22.385Z,90.56
2022-10-11T02:30:22.459Z,90.59
2022-10-11T02:31:22.354Z,90.56
2022-10-11T02:32:22.409Z,90.55
2022-10-11T02:33:22.351Z,90.55
2022-10-11T02:34:22.326Z,90.55
2022-10-11T02:35:22.337Z,90.53
2022-10-11T02:36:22.314Z,90.53
2022-10-11T02:37:22.295Z,90.62
2022-10-11T02:38:22.556Z,90.79
2022-10-11T02:39:22.288Z,90.83
2022-10-11T02:40:22.348Z,90.79
2022-10-11T02:41:22.309Z,90.68
2022-10-11T02:42:22.279Z,90.60
2022-10-11T02:43:22.285Z,90.53
2022-10-11T02:44:22.233Z,90.50
2022-10-11T02:45:22.238Z,90.41
2022-10-11T02:46:22.241Z,90.29
2022-10-11T02:47:22.320Z,90.27
2022-10-11T02:48:22.220Z,90.27
2022-10-11T02:49:22.186Z,90.25
2022-10-11T02:50:22.168Z,90.18
2022-10-11T02:51:22.190Z,90.11
2022-10-11T02:52:22.191Z,90.04
2022-10-11T02:53:22.185Z,90.02
2022-10-11T02:54:22.179Z,89.97
2022-10-11T02:55:22.143Z,89.89
2022-10-11T02:56:22.123Z,89.73
2022-10-11T02:57:22.090Z,89.48
2022-10-11T02:58:22.072Z,89.26
2022-10-11T02:59:22.133Z,89.17
2022-10-11T03:00:22.110Z,89.10
2022-10-11T03:01:22.104Z,89.16
2022-10-11T03:02:22.038Z,89.18
2022-10-11T03:03:22.060Z,89.22
2022-10-11T03:04:22.115Z,89.30
2022-10-11T03:05:22.064Z,89.32
2022-10-11T03:06:22.047Z,89.26
2022-10-11T03:07:22.031Z,89.27
2022-10-11T03:08:22.010Z,89.30
2022-10-11T03:09:22.019Z,89.43
2022-10-11T03:10:21.963Z,89.48
2022-10-11T03:11:22.043Z,89.52
2022-10-11T03:12:21.967Z,89.56
2022-10-11T03:13:21.926Z,89.58
2022-10-11T03:14:21.955Z,89.60
2022-10-11T03:15:21.982Z,89.61
2022-10-11T03:16:21.892Z,89.60
2022-10-11T03:17:36.262Z,89.61
2022-10-11T03:18:21.912Z,89.61
2022-10-11T03:19:21.869Z,89.61
2022-10-11T03:20:21.901Z,89.68
2022-10-11T03:21:21.927Z,89.71
2022-10-11T03:22:21.879Z,89.68
2022-10-11T03:23:21.824Z,89.70
2022-10-11T03:24:21.836Z,89.76
2022-10-11T03:25:21.869Z,89.66
2022-10-11T03:26:21.805Z,89.74
2022-10-11T03:27:21.801Z,89.85
2022-10-11T03:28:21.970Z,89.95
2022-10-11T03:29:21.766Z,89.93
2022-10-11T03:30:21.797Z,89.87
2022-10-11T03:31:21.753Z,89.83
2022-10-11T03:32:21.788Z,89.81
2022-10-11T03:33:21.742Z,89.84
2022-10-11T03:34:21.763Z,89.89
2022-10-11T03:35:21.707Z,89.94
2022-10-11T03:36:21.728Z,90.02
2022-10-11T03:37:21.732Z,89.97
2022-10-11T03:38:21.672Z,89.87
2022-10-11T03:39:21.709Z,89.74
2022-10-11T03:40:21.719Z,89.56
2022-10-11T03:41:21.639Z,89.53
2022-10-11T03:42:21.625Z,89.57
2022-10-11T03:43:21.733Z,89.57
2022-10-11T03:44:21.613Z,89.72
2022-10-11T03:45:21.638Z,89.85
2022-10-11T03:46:21.636Z,89.98
2022-10-11T03:47:21.655Z,89.97
2022-10-11T03:48:21.584Z,89.96
2022-10-11T03:49:21.589Z,90.07
2022-10-11T03:50:21.569Z,90.35
2022-10-11T03:51:21.590Z,90.61
2022-10-11T03:52:21.564Z,90.82
2022-10-11T03:53:21.583Z,90.89
2022-10-11T03:54:21.554Z,90.92
2022-10-11T03:55:21.508Z,90.90
2022-10-11T03:56:21.526Z,90.88
2022-10-11T03:57:21.529Z,90.94
2022-10-11T03:58:21.532Z,90.93
2022-10-11T03:59:21.574Z,90.90
2022-10-11T04:00:21.460Z,90.93
2022-10-11T04:01:21.534Z,90.95
2022-10-11T04:02:21.426Z,90.91
2022-10-11T04:03:21.485Z,90.83
2022-10-11T04:04:21.463Z,90.72
2022-10-11T04:05:21.472Z,90.57
2022-10-11T04:06:21.426Z,90.46
2022-10-11T04:07:21.409Z,90.29
2022-10-11T04:08:21.391Z,90.18
2022-10-11T04:09:21.401Z,90.10
2022-10-11T04:10:21.412Z,90.02
2022-10-11T04:11:21.406Z,89.93
2022-10-11T04:12:21.321Z,89.91
2022-10-11T04:13:21.324Z,89.81
2022-10-11T04:14:21.318Z,89.79
2022-10-11T04:15:21.323Z,89.75
2022-10-11T04:16:21.287Z,89.79
2022-10-11T04:17:21.331Z,89.78
2022-10-11T04:18:21.425Z,89.70
2022-10-11T04:19:21.257Z,89.82
2022-10-11T04:20:21.397Z,89.96
2022-10-11T04:21:21.253Z,89.96
2022-10-11T04:22:21.235Z,90.13
2022-10-11T04:23:21.316Z,90.18
2022-10-11T04:24:21.227Z,90.19
2022-10-11T04:25:21.207Z,90.19
2022-10-11T04:26:21.266Z,90.23
2022-10-11T04:27:21.173Z,90.22
2022-10-11T04:28:21.264Z,90.22
2022-10-11T04:29:21.170Z,90.14
2022-10-11T04:30:21.190Z,90.13
2022-10-11T04:31:21.190Z,90.14
2022-10-11T04:32:21.140Z,90.20
2022-10-11T04:33:21.112Z,90.43
2022-10-11T04:34:21.191Z,90.66
2022-10-11T04:35:21.128Z,90.87
2022-10-11T04:36:21.136Z,91.03
2022-10-11T04:37:21.079Z,91.07
2022-10-11T04:38:21.072Z,91.10
2022-10-11T04:39:21.054Z,91.15
2022-10-11T04:40:21.111Z,91.22
2022-10-11T04:41:21.160Z,91.24
2022-10-11T04:42:21.042Z,91.23
2022-10-11T04:43:21.020Z,91.22
2022-10-11T04:44:21.060Z,91.17
2022-10-11T04:45:21.045Z,91.07
2022-10-11T04:46:20.979Z,91.01
2022-10-11T04:47:21.050Z,90.95
2022-10-11T04:48:20.997Z,90.92
2022-10-11T04:49:20.958Z,90.89
2022-10-11T04:50:21.225Z,90.82
2022-10-11T04:51:20.969Z,90.71
2022-10-11T04:52:25.412Z,90.71
2022-10-11T04:53:20.962Z,90.72
2022-10-11T04:54:20.926Z,90.75
2022-10-11T04:55:20.954Z,90.82
2022-10-11T04:56:20.895Z,90.83
2022-10-11T04:57:20.871Z,90.93
2022-10-11T04:58:20.871Z,91.04
2022-10-11T04:59:20.982Z,91.02
2022-10-11T05:00:20.885Z,91.12
2022-10-11T05:01:20.802Z,91.24
2022-10-11T05:02:20.926Z,91.32
2022-10-11T05:03:20.807Z,91.36
2022-10-11T05:04:20.833Z,91.38
2022-10-11T05:05:20.796Z,91.34
2022-10-11T05:06:20.734Z,91.23
2022-10-11T05:07:20.777Z,91.05
2022-10-11T05:08:20.720Z,90.90
2022-10-11T05:09:20.698Z,90.82
2022-10-11T05:10:20.762Z,90.66
2022-10-11T05:11:20.729Z,90.53
2022-10-11T05:12:20.774Z,90.48
2022-10-11T05:13:20.661Z,90.48
2022-10-11T05:14:20.649Z,90.54
2022-10-11T05:15:20.645Z,90.56
2022-10-11T05:16:20.621Z,90.66
2022-10-11T05:17:20.694Z,90.71
2022-10-11T05:18:20.714Z,90.83
2022-10-11T05:19:20.605Z,90.96
2022-10-11T05:20:20.625Z,91.06
2022-10-11T05:21:20.593Z,91.13
2022-10-11T05:22:20.573Z,91.18
2022-10-11T05:23:20.579Z,91.20
2022-10-11T05:24:20.576Z,91.25
2022-10-11T05:25:20.543Z,91.27
2022-10-11T05:26:20.614Z,91.27
2022-10-11T05:27:20.514Z,91.27
2022-10-11T05:28:20.557Z,91.21
2022-10-11T05:29:20.538Z,91.16
2022-10-11T05:30:20.527Z,91.12
2022-10-11T05:31:20.539Z,91.02
2022-10-11T05:32:20.470Z,90.92
2022-10-11T05:33:20.452Z,90.85
2022-10-11T05:34:20.503Z,90.81
2022-10-11T05:35:20.461Z,90.75
2022-10-11T05:36:20.469Z,90.67
2022-10-11T05:37:20.422Z,90.74
2022-10-11T05:38:20.425Z,90.79
2022-10-11T05:39:20.394Z,90.83
2022-10-11T05:40:20.435Z,90.90
2022-10-11T05:41:20.441Z,90.94
2022-10-11T05:42:20.367Z,90.96
2022-10-11T05:43:20.401Z,90.97
2022-10-11T05:44:20.384Z,90.98
2022-10-11T05:45:20.328Z,91.00
2022-10-11T05:46:20.331Z,91.10
2022-10-11T05:47:20.378Z,91.20
2022-10-11T05:48:20.350Z,91.25
2022-10-11T05:49:20.298Z,91.29
2022-10-11T05:50:24.097Z,91.29
2022-10-11T05:51:20.269Z,91.28
2022-10-11T05:52:20.382Z,91.25
2022-10-11T05:53:20.303Z,91.25
2022-10-11T05:54:20.399Z,91.21
2022-10-11T05:55:20.238Z,91.25
2022-10-11T05:56:20.244Z,91.39
2022-10-11T05:57:20.201Z,91.49
2022-10-11T05:58:20.276Z,91.52
2022-10-11T05:59:20.194Z,91.52
2022-10-11T06:00:20.183Z,91.50
2022-10-11T06:01:20.260Z,91.48
2022-10-11T06:02:20.219Z,91.42
2022-10-11T06:03:20.206Z,91.38
2022-10-11T06:04:20.146Z,91.32
2022-10-11T06:05:20.125Z,91.27
2022-10-11T06:06:20.213Z,91.22
2022-10-11T06:07:20.110Z,91.16
2022-10-11T06:08:20.098Z,91.14
2022-10-11T06:09:20.160Z,91.09
2022-10-11T06:10:20.076Z,91.01
2022-10-11T06:11:20.069Z,90.93
2022-10-11T06:12:20.098Z,90.83
2022-10-11T06:13:20.132Z,90.69
2022-10-11T06:14:20.119Z,90.54
2022-10-11T06:15:20.022Z,90.33
2022-10-11T06:16:20.032Z,90.16
2022-10-11T06:17:20.094Z,90.03
2022-10-11T06:18:19.992Z,90.01
2022-10-11T06:19:20.060Z,89.95
2022-10-11T06:20:19.975Z,89.88
2022-10-11T06:21:19.971Z,89.80
2022-10-11T06:22:20.057Z,89.80
2022-10-11T06:23:19.962Z,89.78
2022-10-11T06:24:19.988Z,89.76
2022-10-11T06:25:19.926Z,89.81
2022-10-11T06:26:19.917Z,89.84
2022-10-11T06:27:20.019Z,89.87
2022-10-11T06:28:19.976Z,89.90
2022-10-11T06:29:19.878Z,89.89
2022-10-11T06:30:19.880Z,89.84
2022-10-11T06:31:19.857Z,89.71
2022-10-11T06:32:19.920Z,89.71
2022-10-11T06:33:19.835Z,89.78
2022-10-11T06:34:19.883Z,89.74
2022-10-11T06:35:19.906Z,89.74
2022-10-11T06:36:19.809Z,89.74
2022-10-11T06:37:19.798Z,89.76
2022-10-11T06:38:19.809Z,89.77
2022-10-11T06:39:19.781Z,89.82
2022-10-11T06:40:19.772Z,89.83
2022-10-11T06:41:19.816Z,89.82
2022-10-11T06:42:19.885Z,89.86
2022-10-11T06:43:19.745Z,89.83
2022-10-11T06:44:19.806Z,89.76
2022-10-11T06:45:19.731Z,89.77
2022-10-11T06:46:19.707Z,89.68
2022-10-11T06:47:19.780Z,89.69
2022-10-11T06:48:19.694Z,89.68
2022-10-11T06:49:23.345Z,89.55
2022-10-11T06:50:34.865Z,89.52
2022-10-11T06:51:19.689Z,89.54
2022-10-11T06:52:19.766Z,89.67
2022-10-11T06:53:19.659Z,89.77
2022-10-11T06:54:19.680Z,89.84
2022-10-11T06:55:19.711Z,89.94
2022-10-11T06:56:19.623Z,90.03
2022-10-11T06:57:19.607Z,89.96
2022-10-11T06:58:19.657Z,89.88
2022-10-11T06:59:19.617Z,89.75
2022-10-11T07:00:19.630Z,89.88
2022-10-11T07:01:19.646Z,89.89
2022-10-11T07:02:19.739Z,89.76
2022-10-11T07:03:19.533Z,89.74
2022-10-11T07:04:19.528Z,89.74
2022-10-11T07:05:19.512Z,89.63
2022-10-11T07:06:19.508Z,89.44
2022-10-11T07:07:19.527Z,89.20
2022-10-11T07:08:19.533Z,88.99
2022-10-11T07:09:19.471Z,88.77
2022-10-11T07:10:19.571Z,88.35
2022-10-11T07:11:19.479Z,88.40
2022-10-11T07:12:19.448Z,88.32
2022-10-11T07:13:19.458Z,88.22
2022-10-11T07:14:19.426Z,88.03
2022-10-11T07:15:19.413Z,87.73
2022-10-11T07:16:19.543Z,87.54
2022-10-11T07:17:19.391Z,87.58
2022-10-11T07:18:19.433Z,87.60
2022-10-11T07:19:19.473Z,87.55
2022-10-11T07:20:19.359Z,87.37
2022-10-11T07:21:19.416Z,87.40
2022-10-11T07:22:19.339Z,87.70
2022-10-11T07:23:19.348Z,87.57
2022-10-11T07:24:19.420Z,87.50
2022-10-11T07:25:19.337Z,87.96
2022-10-11T07:26:19.310Z,88.15
2022-10-11T07:27:19.414Z,87.96
2022-10-11T07:28:19.296Z,87.74
2022-10-11T07:29:19.345Z,87.71
2022-10-11T07:30:19.302Z,87.75
2022-10-11T07:31:19.406Z,87.79
2022-10-11T07:32:19.316Z,87.72
2022-10-11T07:33:19.232Z,87.59
2022-10-11T07:34:19.279Z,87.59
2022-10-11T07:35:19.253Z,87.45
2022-10-11T07:36:19.257Z,87.46
2022-10-11T07:37:19.293Z,87.52
2022-10-11T07:38:19.192Z,87.29
2022-10-11T07:39:19.162Z,87.09
2022-10-11T07:40:19.255Z,86.78
2022-10-11T07:41:19.190Z,86.97
2022-10-11T07:42:19.143Z,86.87
2022-10-11T07:43:19.229Z,87.12
2022-10-11T07:44:19.116Z,87.07
2022-10-11T07:45:19.105Z,87.08
2022-10-11T07:46:19.098Z,87.17
2022-10-11T07:47:19.083Z,87.03
2022-10-11T07:48:19.137Z,86.76
2022-10-11T07:49:19.125Z,86.71
2022-10-11T07:50:19.084Z,86.72
2022-10-11T07:51:19.108Z,86.80
2022-10-11T07:52:19.051Z,86.64
2022-10-11T07:53:19.038Z,86.59
2022-10-11T07:54:19.015Z,86.31
2022-10-11T07:55:19.117Z,86.16
2022-10-11T07:56:19.040Z,86.23
2022-10-11T07:57:19.032Z,86.15
2022-10-11T07:58:18.986Z,85.92
2022-10-11T07:59:18.988Z,85.95
2022-10-11T08:00:19.078Z,85.63
2022-10-11T08:01:19.046Z,85.68
2022-10-11T08:02:18.938Z,86.31
2022-10-11T08:03:18.949Z,86.09
2022-10-11T08:04:18.928Z,86.03
2022-10-11T08:05:18.893Z,85.03
2022-10-11T08:06:18.971Z,84.91
2022-10-11T08:07:18.948Z,84.64
2022-10-11T08:08:18.880Z,84.77
2022-10-11T08:09:18.860Z,84.75
2022-10-11T08:10:18.859Z,84.32
2022-10-11T08:11:18.857Z,83.70
2022-10-11T08:12:18.837Z,82.80
2022-10-11T08:13:19.043Z,81.15
2022-10-11T08:14:18.809Z,80.50
2022-10-11T08:15:18.800Z,80.75
2022-10-11T08:16:18.790Z,81.02
2022-10-11T08:17:18.778Z,80.94
2022-10-11T08:18:18.779Z,80.26
2022-10-11T08:19:18.797Z,80.03
2022-10-11T08:20:18.825Z,80.78
2022-10-11T08:21:18.799Z,79.97
2022-10-11T08:22:18.781Z,79.91
2022-10-11T08:23:18.744Z,80.65
2022-10-11T08:24:18.757Z,81.20
2022-10-11T08:25:18.769Z,81.71
2022-10-11T08:26:18.705Z,81.03
2022-10-11T08:27:18.795Z,81.51
2022-10-11T08:28:18.862Z,82.14
2022-10-11T08:29:18.698Z,82.43
2022-10-11T08:30:18.690Z,82.39
2022-10-11T08:31:18.656Z,82.13
2022-10-11T08:32:18.644Z,82.00
2022-10-11T08:33:18.675Z,81.37
2022-10-11T08:34:18.608Z,81.45
2022-10-11T08:35:18.646Z,80.95
2022-10-11T08:36:18.587Z,81.14
2022-10-11T08:37:18.689Z,79.54
2022-10-11T08:38:18.566Z,79.78
2022-10-11T08:39:18.593Z,80.33
2022-10-11T08:40:18.553Z,80.84
2022-10-11T08:41:18.541Z,81.52
2022-10-11T08:42:18.572Z,81.13
2022-10-11T08:43:18.568Z,81.81
2022-10-11T08:44:18.553Z,81.50
2022-10-11T08:45:18.517Z,80.79
2022-10-11T08:46:18.490Z,81.07
2022-10-11T08:47:18.477Z,81.44
2022-10-11T08:48:18.506Z,81.60
2022-10-11T08:49:18.468Z,81.66
2022-10-11T08:50:18.454Z,81.97
2022-10-11T08:51:18.439Z,81.58
2022-10-11T08:52:18.548Z,81.12
2022-10-11T08:53:18.437Z,80.10
2022-10-11T08:54:18.470Z,79.59
2022-10-11T08:55:18.393Z,79.45
2022-10-11T08:56:18.458Z,78.14
2022-10-11T08:57:18.371Z,77.81
2022-10-11T08:58:18.376Z,77.78
2022-10-11T08:59:18.406Z,77.51
2022-10-11T09:00:18.421Z,76.37
2022-10-11T09:01:18.495Z,77.78
2022-10-11T09:02:18.379Z,76.56
2022-10-11T09:03:18.301Z,75.66
2022-10-11T09:04:18.311Z,75.91
2022-10-11T09:05:18.348Z,76.42
2022-10-11T09:06:18.284Z,75.28
2022-10-11T09:07:18.330Z,74.68
2022-10-11T09:08:18.283Z,74.33
2022-10-11T09:09:18.246Z,73.86
2022-10-11T09:10:18.252Z,73.70
2022-10-11T09:11:18.264Z,73.25
2022-10-11T09:12:18.235Z,72.28
2022-10-11T09:13:18.269Z,72.42
2022-10-11T09:14:18.282Z,73.35
2022-10-11T09:15:18.197Z,72.79
2022-10-11T09:16:18.300Z,71.72
2022-10-11T09:17:18.214Z,71.95
2022-10-11T09:18:18.199Z,72.21
2022-10-11T09:19:18.148Z,72.06
2022-10-11T09:20:18.133Z,71.36
2022-10-11T09:21:18.193Z,71.22
2022-10-11T09:22:18.157Z,71.34
2022-10-11T09:23:18.162Z,71.95
2022-10-11T09:24:18.175Z,71.79
2022-10-11T09:25:18.107Z,72.27
2022-10-11T09:26:18.085Z,71.90
2022-10-11T09:27:18.186Z,70.27
2022-10-11T09:28:18.103Z,70.62
2022-10-11T09:29:18.049Z,71.34
2022-10-11T09:30:18.085Z,71.70
2022-10-11T09:31:18.050Z,71.98
2022-10-11T09:32:18.111Z,71.82
2022-10-11T09:33:18.038Z,71.23
2022-10-11T09:34:17.990Z,72.57
2022-10-11T09:35:17.981Z,73.95
2022-10-11T09:36:18.071Z,73.06
2022-10-11T09:37:18.058Z,73.37
2022-10-11T09:38:17.958Z,73.90
2022-10-11T09:39:17.983Z,74.22
2022-10-11T09:40:17.924Z,73.94
2022-10-11T09:41:17.917Z,74.56
2022-10-11T09:42:17.960Z,74.38
2022-10-11T09:43:17.922Z,74.18
2022-10-11T09:44:17.908Z,74.26
2022-10-11T09:45:17.907Z,74.03
2022-10-11T09:46:17.884Z,72.25
2022-10-11T09:47:17.956Z,72.92
2022-10-11T09:48:17.972Z,73.94
2022-10-11T09:49:17.888Z,75.12
2022-10-11T09:50:17.899Z,75.99
2022-10-11T09:51:17.818Z,74.99
2022-10-11T09:52:17.869Z,75.27
2022-10-11T09:53:17.845Z,75.94
2022-10-11T09:54:17.799Z,75.12
2022-10-11T09:55:19.793Z,75.11
2022-10-11T09:56:17.813Z,75.93
2022-10-11T09:57:18.012Z,73.98
2022-10-11T09:58:17.788Z,73.60
2022-10-11T09:59:17.781Z,73.92
2022-10-11T10:00:17.839Z,74.44
2022-10-11T10:01:17.750Z,74.69
2022-10-11T10:02:17.753Z,73.65
2022-10-11T10:03:17.729Z,73.53
2022-10-11T10:04:17.677Z,73.91
2022-10-11T10:05:17.682Z,73.43
2022-10-11T10:06:17.695Z,73.18
2022-10-11T10:07:17.731Z,72.89
2022-10-11T10:08:17.704Z,72.63
2022-10-11T10:09:17.631Z,72.84
2022-10-11T10:10:17.724Z,73.31
2022-10-11T10:11:17.626Z,73.83
2022-10-11T10:12:17.617Z,73.69
2022-10-11T10:13:17.593Z,74.72
2022-10-11T10:14:17.611Z,75.67
2022-10-11T10:15:17.600Z,75.79
2022-10-11T10:16:17.562Z,77.31
2022-10-11T10:17:17.564Z,78.03
2022-10-11T10:18:17.601Z,77.85
2022-10-11T10:19:17.549Z,78.15
2022-10-11T10:20:17.534Z,77.63
2022-10-11T10:21:17.564Z,77.61
2022-10-11T10:22:17.519Z,77.66
2022-10-11T10:23:17.510Z,77.55
2022-10-11T10:24:17.495Z,77.50
2022-10-11T10:25:17.472Z,77.91
2022-10-11T10:26:17.453Z,78.52
2022-10-11T10:27:17.521Z,77.64
2022-10-11T10:28:17.502Z,77.79
2022-10-11T10:29:17.438Z,78.36
2022-10-11T10:30:17.480Z,78.73
2022-10-11T10:31:17.406Z,78.97
2022-10-11T10:32:17.395Z,79.06
2022-10-11T10:33:17.456Z,78.67
2022-10-11T10:34:17.400Z,78.87
2022-10-11T10:35:17.365Z,78.69
2022-10-11T10:36:17.384Z,78.16
2022-10-11T10:37:17.346Z,77.89
2022-10-11T10:38:17.370Z,78.55
2022-10-11T10:39:17.335Z,78.53
2022-10-11T10:40:17.321Z,78.74
2022-10-11T10:41:17.321Z,78.81
2022-10-11T10:42:17.404Z,78.93
2022-10-11T10:43:17.309Z,78.14
2022-10-11T10:44:17.372Z,78.35
2022-10-11T10:45:21.099Z,77.90
2022-10-11T10:46:17.254Z,77.14
2022-10-11T10:47:17.256Z,77.68
2022-10-11T10:48:17.267Z,77.45
2022-10-11T10:49:51.971Z,77.19
2022-10-11T10:50:17.213Z,77.47
2022-10-11T10:51:17.208Z,77.37
2022-10-11T10:52:17.193Z,77.26
2022-10-11T10:53:17.251Z,77.13
2022-10-11T10:54:17.183Z,77.45
2022-10-11T10:55:17.301Z,76.76
2022-10-11T10:56:17.405Z,76.71
2022-10-11T10:57:17.154Z,76.30
2022-10-11T10:58:18.878Z,76.53
2022-10-11T10:59:17.225Z,76.24
2022-10-11T11:00:17.179Z,76.09
2022-10-11T11:01:17.271Z,76.25
2022-10-11T11:02:38.941Z,76.59
2022-10-11T11:03:17.174Z,76.37
2022-10-11T11:16:42.120Z,75.60
2022-10-11T11:17:43.055Z,76.14
2022-10-11T11:18:43.054Z,75.60
2022-10-11T11:19:42.994Z,75.28
2022-10-11T11:20:43.118Z,75.10
2022-10-11T11:21:43.016Z,75.06
2022-10-11T11:22:42.976Z,75.68
2022-10-11T11:23:42.960Z,75.29
2022-10-11T11:24:43.006Z,75.46
2022-10-11T11:25:45.048Z,75.37
2022-10-11T11:26:44.432Z,75.27
2022-10-11T11:27:42.928Z,75.60
2022-10-11T11:28:42.942Z,74.65
2022-10-11T11:29:42.949Z,75.24
2022-10-11T11:30:42.912Z,75.47
2022-10-11T11:31:42.877Z,74.85
2022-10-11T11:32:45.675Z,74.26
2022-10-11T11:33:48.530Z,74.51
2022-10-11T11:34:42.899Z,73.87
2022-10-11T11:35:42.835Z,74.34
2022-10-11T11:36:42.830Z,74.53
2022-10-11T11:37:42.817Z,74.62
2022-10-11T11:38:42.805Z,74.27
2022-10-11T11:39:42.835Z,74.50
2022-10-11T11:40:42.839Z,75.04
2022-10-11T11:41:42.836Z,74.48
2022-10-11T11:42:42.769Z,73.96
2022-10-11T11:43:42.761Z,73.62
2022-10-11T11:44:42.742Z,73.28
2022-10-11T11:45:42.792Z,72.30
2022-10-11T11:46:42.727Z,71.93
2022-10-11T11:47:42.826Z,72.05
2022-10-11T11:48:42.734Z,71.71
2022-10-11T11:50:42.686Z,71.43
2022-10-11T11:51:42.694Z,70.73
2022-10-11T11:52:42.718Z,70.81
2022-10-11T11:53:42.654Z,71.60
2022-10-11T11:54:42.649Z,72.23
2022-10-11T11:55:42.645Z,71.73
2022-10-11T11:56:42.627Z,71.46
2022-10-11T11:57:42.639Z,71.85
2022-10-11T11:58:42.643Z,72.14
2022-10-11T11:59:42.607Z,71.35
2022-10-11T12:00:42.595Z,71.62
2022-10-11T12:01:42.678Z,71.34
2022-10-11T12:02:42.632Z,70.73
2022-10-11T12:03:42.573Z,70.49
2022-10-11T12:04:42.543Z,69.82
2022-10-11T12:05:42.544Z,69.01
2022-10-11T12:07:04.068Z,69.72
2022-10-11T12:07:42.524Z,70.48
2022-10-11T12:08:42.593Z,70.01
2022-10-11T12:09:42.576Z,70.06
2022-10-11T12:10:42.891Z,69.72
2022-10-11T12:11:42.543Z,69.06
2022-10-11T12:12:43.314Z,68.72
2022-10-11T12:13:42.535Z,68.85
2022-10-11T12:14:42.452Z,68.64
2022-10-11T12:15:42.507Z,68.35
2022-10-11T12:16:42.429Z,68.66
2022-10-11T12:17:42.439Z,68.72
2022-10-11T12:18:42.793Z,69.36
2022-10-11T12:19:42.428Z,69.53
2022-10-11T12:20:42.391Z,70.07
2022-10-11T12:21:42.428Z,69.68
2022-10-11T12:22:42.426Z,69.07
2022-10-11T12:23:42.361Z,69.03
2022-10-11T12:24:42.373Z,69.19
2022-10-11T12:25:42.339Z,68.90
2022-10-11T12:26:42.321Z,69.25
2022-10-11T12:27:42.321Z,68.70
2022-10-11T12:28:42.425Z,69.25
2022-10-11T12:29:42.337Z,69.18
2022-10-11T12:30:42.312Z,69.62
2022-10-11T12:31:45.949Z,69.90
2022-10-11T12:32:42.272Z,69.90
2022-10-11T12:33:42.268Z,70.30
2022-10-11T12:34:42.709Z,70.15
2022-10-11T12:35:42.236Z,70.16
2022-10-11T12:36:42.277Z,70.25
2022-10-11T12:37:42.207Z,70.18
2022-10-11T12:38:42.205Z,69.68
2022-10-11T12:39:42.207Z,71.13
2022-10-11T12:40:42.240Z,71.15
2022-10-11T12:41:42.186Z,71.37
2022-10-11T12:42:42.224Z,71.39
2022-10-11T12:43:42.205Z,71.07
2022-10-11T12:44:42.352Z,71.47
2022-10-11T12:45:42.138Z,70.59
2022-10-11T12:46:42.124Z,71.50
2022-10-11T12:47:42.132Z,71.96
2022-10-11T12:48:42.182Z,72.32
2022-10-11T12:49:42.092Z,71.55
2022-10-11T12:50:42.079Z,71.31
2022-10-11T12:51:42.091Z,71.77
2022-10-11T12:52:42.116Z,72.16
2022-10-11T12:53:42.079Z,72.44
2022-10-11T12:54:42.099Z,72.64
2022-10-11T12:55:42.038Z,72.55
2022-10-11T12:56:42.023Z,72.37
2022-10-11T12:57:46.113Z,72.18
2022-10-11T12:58:41.999Z,72.31
2022-10-11T12:59:42.057Z,72.00
2022-10-11T13:00:41.989Z,71.84
2022-10-11T13:01:42.070Z,70.88
2022-10-11T13:02:42.162Z,71.01
2022-10-11T13:03:41.978Z,71.19
2022-10-11T13:04:41.942Z,70.72
2022-10-11T13:05:44.747Z,70.87